Etusivu
METAR-TAF:

METAR-TAF

Lentoasemat :

Colmar, Ranska

Leveyspiiri: 48-06-37N, Pituuspiiri: 7-21-33E, korkeus merenpinnasta: 191 m

Tämänhetkinen sää

Tämä raportti tehtiin 30 minuuttia sitten, kello 11.00 UTC
tyyntä
Lämpötila 4°C
Kosteus 93%
Ilmanpaine 1010 hPa
Näkyvyys: 7000 m
Pilvistä 600 ft:n korkeudessa

METAR: LFGA 211100Z AUTO 00000KT 7000 OVC006 04/03 Q1010

Aika: 12:30 (11:30 UTC)


TAF: puuttuu

Säähavainnot ja -ennusteet yli 4000 lentoasemalta (METAR- ja TAF-raportit).

Käytössä olevat sääasemat on merkitty karttaan keltaisilla ja punaisilla pisteillä.

Aseta hiiri pisteen päälle nähdäksesi sääaseman nimen.

Klikkaa sitten nähdäksesi säähavainnot ja -ennusteet.

Kartan vaihtaminen: klikkaa mustalla rastilla varustettuja vihreitä pisteitä, niin voit zoomata sisään; viivalla varustettua vihreää pistettä, niin voit zoomata ulos tai vihreitä nuolia, niin pääset viereisille kartoille.


METAR-TAF: